createdAt,value
2023-05-09T00:01:57.499Z,210.9
2023-05-09T00:03:58.555Z,214.5
2023-05-09T00:05:59.629Z,222.8
2023-05-09T00:10:01.822Z,232
2023-05-09T00:12:02.956Z,198.2
2023-05-09T00:14:04.062Z,215.6
2023-05-09T00:16:08.345Z,225.7
2023-05-09T00:20:10.528Z,214.3
2023-05-09T00:21:12.668Z,211.2
2023-05-09T00:23:13.754Z,222.2
2023-05-09T00:25:15.139Z,209.6
2023-05-09T00:27:15.956Z,203.3
2023-05-09T00:29:20.241Z,237.5
2023-05-09T00:31:21.339Z,220.8
2023-05-09T00:33:22.435Z,205.3
2023-05-09T00:35:23.549Z,204.9
2023-05-09T00:37:24.654Z,189.5
2023-05-09T00:39:25.744Z,175.9
2023-05-09T00:41:26.854Z,196.8
2023-05-09T00:43:31.135Z,217.4
2023-05-09T00:45:32.249Z,175.4
2023-05-09T00:47:33.437Z,179.2
2023-05-09T00:49:34.454Z,185.3
2023-05-09T00:51:35.541Z,167.3
2023-05-09T00:53:36.650Z,199.6
2023-05-09T01:01:44.297Z,205.9
2023-05-09T01:03:45.506Z,198.2
2023-05-09T01:05:46.442Z,182.7
2023-05-09T01:11:52.920Z,182.9
2023-05-09T01:13:54.039Z,190.9
2023-05-09T01:15:55.246Z,152.5
2023-05-09T01:20:24.204Z,171.4
2023-05-09T01:28:31.810Z,159
2023-05-09T01:36:36.201Z,174.2
2023-05-09T01:38:40.483Z,165.7
2023-05-09T01:46:44.977Z,169.9
2023-05-09T01:52:51.370Z,157.3
2023-05-09T01:54:52.470Z,179.6
2023-05-09T01:56:53.564Z,162.8
2023-05-09T02:00:55.806Z,165.4
2023-05-09T02:02:56.947Z,164.9
2023-05-09T02:04:58.003Z,158.4
2023-05-09T02:07:02.265Z,159.7
2023-05-09T02:09:03.348Z,149.1
2023-05-09T02:11:04.418Z,176.2
2023-05-09T02:12:06.581Z,160.2
2023-05-09T02:14:07.666Z,162.9
2023-05-09T02:22:15.247Z,155.5
2023-05-09T02:26:17.447Z,154.1
2023-05-09T02:28:18.552Z,145.7
2023-05-09T02:30:19.649Z,168.2
2023-05-09T02:32:20.735Z,145.5
2023-05-09T02:34:25.036Z,147
2023-05-09T02:42:29.465Z,145.5
2023-05-09T02:44:30.567Z,144.1
2023-05-09T02:46:31.721Z,137.4
2023-05-09T02:48:35.930Z,163.3
2023-05-09T02:50:37.057Z,165.6
2023-05-09T02:52:38.147Z,161.6
2023-05-09T02:54:39.245Z,183.9
2023-05-09T02:56:40.379Z,174.1
2023-05-09T02:58:41.456Z,151.2
2023-05-09T03:00:42.578Z,148
2023-05-09T03:02:46.879Z,158.7
2023-05-09T03:04:47.929Z,151.7
2023-05-09T03:06:49.022Z,145.2
2023-05-09T03:07:52.711Z,167.4
2023-05-09T03:09:53.778Z,139.2
2023-05-09T03:11:54.872Z,157
2023-05-09T03:13:55.994Z,131.8
2023-05-09T03:16:00.282Z,125.6
2023-05-09T03:18:01.399Z,131.4
2023-05-09T03:20:04.394Z,136.5
2023-05-09T03:22:03.560Z,137.6
2023-05-09T03:24:04.651Z,124.8
2023-05-09T03:26:05.791Z,142.5
2023-05-09T03:28:06.862Z,129.9
2023-05-09T03:32:13.878Z,117.4
2023-05-09T03:34:13.332Z,125.3
2023-05-09T03:36:14.449Z,113.6
2023-05-09T03:40:16.654Z,113.7
2023-05-09T03:42:17.716Z,114
2023-05-09T03:44:21.993Z,118.3
2023-05-09T03:46:23.215Z,109.2
2023-05-09T03:48:24.204Z,106
2023-05-09T03:50:25.301Z,103
2023-05-09T03:54:27.485Z,117
2023-05-09T03:58:32.867Z,129.3
2023-05-09T04:00:33.970Z,117.4
2023-05-09T04:02:35.195Z,108.8
2023-05-09T04:03:37.323Z,119.1
2023-05-09T04:19:49.202Z,117.4
2023-05-09T04:21:50.322Z,118.4
2023-05-09T04:27:56.811Z,120.5
2023-05-09T04:31:59.095Z,121.1
2023-05-09T04:34:00.183Z,108.2
2023-05-09T04:36:01.216Z,109.8
2023-05-09T04:38:02.319Z,124.3
2023-05-09T04:40:06.613Z,112.2
2023-05-09T04:44:08.827Z,105.2
2023-05-09T04:46:09.969Z,123.8
2023-05-09T04:50:12.142Z,117.9
2023-05-09T04:52:13.245Z,133.1
2023-05-09T04:54:17.512Z,124.4
2023-05-09T04:56:18.612Z,119.1
2023-05-09T04:58:19.740Z,117.5
2023-05-09T05:00:45.768Z,128.5
2023-05-09T05:02:46.956Z,125.8
2023-05-09T05:04:48.017Z,117.3
2023-05-09T05:06:52.245Z,100.8
2023-05-09T05:08:53.352Z,124.3
2023-05-09T05:10:54.475Z,126.2
2023-05-09T05:12:55.618Z,133.5
2023-05-09T05:14:56.665Z,102.9
2023-05-09T05:16:57.794Z,99
2023-05-09T05:18:58.881Z,109.6
2023-05-09T05:21:03.157Z,116.2
2023-05-09T05:23:04.277Z,119.4
2023-05-09T05:25:05.370Z,118.7
2023-05-09T05:27:06.468Z,103.3
2023-05-09T05:29:07.570Z,104.6
2023-05-09T05:31:08.662Z,96.1
2023-05-09T05:33:09.822Z,92.9
2023-05-09T05:35:14.359Z,100
2023-05-09T05:37:15.133Z,92.7
2023-05-09T05:39:16.233Z,103.1
2023-05-09T05:41:17.317Z,92.3
2023-05-09T05:45:19.546Z,77.8
2023-05-09T05:49:24.960Z,92.7
2023-05-09T05:54:29.226Z,87.7
2023-05-09T05:58:31.465Z,94.3
2023-05-09T06:00:32.543Z,91.6
2023-05-09T06:06:39.010Z,88.5
2023-05-09T06:08:40.114Z,84.2
2023-05-09T06:12:42.350Z,76.7
2023-05-09T06:16:47.693Z,77.9
2023-05-09T06:18:48.796Z,72.9
2023-05-09T06:20:49.882Z,68.3
2023-05-09T06:24:52.053Z,64
2023-05-09T06:26:53.145Z,70.3
2023-05-09T06:28:54.233Z,62.7
2023-05-09T06:30:58.520Z,70.4
2023-05-09T06:32:59.648Z,88.9
2023-05-09T06:35:00.742Z,64.1
2023-05-09T06:37:01.845Z,76.4
2023-05-09T06:39:02.939Z,70.4
2023-05-09T06:45:09.476Z,62
2023-05-09T06:47:10.470Z,63.1
2023-05-09T06:49:11.554Z,53
2023-05-09T06:54:15.869Z,72.6
2023-05-09T07:00:22.335Z,69.4
2023-05-09T07:04:24.526Z,55.2
2023-05-09T07:06:25.633Z,56.2
2023-05-09T07:08:26.704Z,48.6
2023-05-09T07:10:27.880Z,50
2023-05-09T07:14:33.168Z,44.5
2023-05-09T07:16:36.636Z,53
2023-05-09T07:18:35.345Z,40.8
2023-05-09T07:20:36.524Z,45.3
2023-05-09T07:22:37.878Z,43.7
2023-05-09T07:24:38.601Z,47.1
2023-05-09T07:26:42.886Z,39.7
2023-05-09T07:28:44.054Z,43.9
2023-05-09T07:30:45.033Z,36.7
2023-05-09T07:32:46.203Z,38.8
2023-05-09T07:34:47.216Z,44.3
2023-05-09T07:36:48.302Z,52.4
2023-05-09T07:38:49.376Z,36.9
2023-05-09T07:44:55.818Z,42.3
2023-05-09T07:45:57.971Z,37.5
2023-05-09T07:47:59.080Z,40
2023-05-09T07:50:00.198Z,28.3
2023-05-09T07:52:01.222Z,40.3
2023-05-09T07:54:05.484Z,32.6
2023-05-09T07:58:07.669Z,35
2023-05-09T08:00:08.752Z,27.6
2023-05-09T08:04:11.066Z,38.9
2023-05-09T08:30:31.370Z,33.8
2023-05-09T08:32:32.512Z,31.4
2023-05-09T08:34:33.528Z,70.2
2023-05-09T08:36:37.790Z,103.2
2023-05-09T08:38:38.881Z,39.2
2023-05-09T08:40:39.947Z,29.7
2023-05-09T08:43:07.840Z,48.9
2023-05-09T08:47:09.980Z,28.3
2023-05-09T08:49:14.261Z,17.9
2023-05-09T08:51:15.344Z,24.1
2023-05-09T08:55:17.470Z,23.5
2023-05-09T08:57:20.067Z,19.2
2023-05-09T08:59:21.101Z,27
2023-05-09T09:01:22.172Z,28.9
2023-05-09T09:05:40.792Z,24.1
2023-05-09T09:07:29.984Z,29
2023-05-09T09:09:29.670Z,38.8
2023-05-09T09:11:30.715Z,227.8
2023-05-09T09:13:31.906Z,26.5
2023-05-09T09:15:32.855Z,26.6
2023-05-09T09:19:38.178Z,21.4
2023-05-09T09:21:39.246Z,25.4
2023-05-09T09:23:40.357Z,96.1
2023-05-09T09:25:41.361Z,78.6
2023-05-09T09:29:43.536Z,29.2
2023-05-09T09:31:47.856Z,23.5
2023-05-09T09:33:48.928Z,30.9
2023-05-09T09:36:52.055Z,26.1
2023-05-09T09:38:53.109Z,34.1
2023-05-09T09:40:54.174Z,27.1
2023-05-09T09:42:55.248Z,27.3
2023-05-09T09:44:59.508Z,24.7
2023-05-09T09:47:00.580Z,36.1
2023-05-09T09:49:01.678Z,39.6
2023-05-09T09:51:02.716Z,30.1
2023-05-09T09:53:03.801Z,37
2023-05-09T09:57:05.912Z,28.2
2023-05-09T10:03:12.399Z,31.8
2023-05-09T10:05:13.408Z,23.5
2023-05-09T10:09:15.586Z,18.6
2023-05-09T10:13:21.008Z,25.7
2023-05-09T10:15:21.979Z,32.7
2023-05-09T10:17:23.371Z,24.4
2023-05-09T10:19:24.164Z,25.9
2023-05-09T10:23:26.303Z,20.1
2023-05-09T10:25:27.408Z,17.6
2023-05-09T10:29:32.749Z,17.2
2023-05-09T10:31:33.814Z,33.6
2023-05-09T10:32:35.971Z,21
2023-05-09T10:34:37.023Z,30.4
2023-05-09T10:36:38.087Z,12.6
2023-05-09T10:38:39.167Z,14.4
2023-05-09T10:40:43.423Z,15.6
2023-05-09T10:42:44.488Z,12.7
2023-05-09T10:44:45.554Z,12.1
2023-05-09T10:46:46.648Z,11.4
2023-05-09T10:48:47.729Z,14.8
2023-05-09T10:50:48.774Z,7
2023-05-09T10:52:49.852Z,11
2023-05-09T10:54:54.088Z,11.5
2023-05-09T10:56:55.176Z,12.5
2023-05-09T11:00:57.542Z,8.3
2023-05-09T11:07:00.531Z,6.6
2023-05-09T11:09:04.771Z,13.9
2023-05-09T11:17:09.044Z,11.1
2023-05-09T11:19:10.175Z,11.2
2023-05-09T11:21:11.196Z,14.7
2023-05-09T11:23:15.457Z,8.2
2023-05-09T11:28:19.708Z,8.6
2023-05-09T11:30:20.769Z,15
2023-05-09T11:36:27.180Z,19.9
2023-05-09T11:40:29.345Z,11.9
2023-05-09T11:42:30.393Z,14.1
2023-05-09T11:44:31.502Z,11.1
2023-05-09T11:46:32.618Z,10.6
2023-05-09T11:50:37.901Z,16
2023-05-09T11:54:40.071Z,9.8
2023-05-09T11:58:42.243Z,10.6
2023-05-09T12:00:43.315Z,11.6
2023-05-09T12:06:49.773Z,9.2
2023-05-09T12:21:00.585Z,7.9
2023-05-09T12:25:29.631Z,12.8
2023-05-09T12:27:30.745Z,8.3
2023-05-09T12:31:36.176Z,8.7
2023-05-09T12:33:37.195Z,10.9
2023-05-09T12:35:38.276Z,17.1
2023-05-09T12:37:39.411Z,14.7
2023-05-09T12:39:40.501Z,15.2
2023-05-09T12:51:50.239Z,8.1
2023-05-09T12:53:51.354Z,10.7
2023-05-09T12:55:52.435Z,9
2023-05-09T12:57:53.532Z,7.3
2023-05-09T12:59:57.811Z,5.7
2023-05-09T13:03:59.985Z,3.8
2023-05-09T13:06:01.101Z,6
2023-05-09T13:08:02.174Z,8.1
2023-05-09T13:10:03.273Z,6.3
2023-05-09T13:12:04.398Z,11.4
2023-05-09T13:14:08.669Z,3.7
2023-05-09T13:16:11.166Z,12.6
2023-05-09T13:18:10.883Z,5.2
2023-05-09T13:19:12.983Z,8.7
2023-05-09T13:21:14.704Z,6.8
2023-05-09T13:23:15.787Z,9.9
2023-05-09T13:25:16.877Z,5.7
2023-05-09T13:27:21.139Z,9
2023-05-09T13:29:22.293Z,17.3
2023-05-09T13:31:23.491Z,8
2023-05-09T13:35:25.565Z,6.3
2023-05-09T13:45:34.411Z,4.6
2023-05-09T13:47:36.676Z,6.8
2023-05-09T14:01:46.485Z,14.4
2023-05-09T14:07:49.764Z,8.1
2023-05-09T14:13:56.267Z,2.6
2023-05-09T14:14:58.409Z,4
2023-05-09T14:23:06.087Z,8.2
2023-05-09T14:25:07.151Z,5.2
2023-05-09T14:27:08.259Z,9.9
2023-05-09T14:29:09.407Z,5.4
2023-05-09T14:39:18.091Z,6
2023-05-09T14:49:25.377Z,4.2
2023-05-09T14:51:29.631Z,5
2023-05-09T14:53:30.768Z,9.7
2023-05-09T14:59:36.693Z,7.2
2023-05-09T15:01:35.337Z,9.4
2023-05-09T15:03:36.430Z,7.6
2023-05-09T15:05:40.813Z,6.1
2023-05-09T15:07:42.014Z,5.2
2023-05-09T15:09:43.094Z,33.7
2023-05-09T15:10:45.252Z,7.8
2023-05-09T15:12:46.415Z,29.7
2023-05-09T15:14:47.506Z,4.7
2023-05-09T15:16:48.700Z,39.5
2023-05-09T15:18:53.059Z,9.2
2023-05-09T15:20:54.128Z,9.4
2023-05-09T15:22:55.290Z,7
2023-05-09T15:24:56.369Z,42.4
2023-05-09T15:26:57.489Z,23.4
2023-05-09T15:30:59.775Z,7.5
2023-05-09T15:33:04.067Z,10.5
2023-05-09T15:35:05.132Z,3.3
2023-05-09T15:49:16.158Z,3.9
2023-05-09T15:53:18.476Z,4.8
2023-05-09T15:55:19.642Z,6.5
2023-05-09T15:57:20.749Z,27
2023-05-09T15:59:21.840Z,5.6
2023-05-09T16:01:26.178Z,7.2
2023-05-09T16:03:27.497Z,8.6
2023-05-09T16:05:28.463Z,9.2
2023-05-09T16:18:05.863Z,11.6
2023-05-09T16:20:06.986Z,14.5
2023-05-09T16:22:08.203Z,9.4
2023-05-09T16:24:09.413Z,12.2
2023-05-09T16:28:15.131Z,16.1
2023-05-09T16:32:17.563Z,8.9
2023-05-09T16:34:18.803Z,8.8
2023-05-09T16:36:20.005Z,13.2
2023-05-09T16:38:21.247Z,22.4
2023-05-09T16:40:22.459Z,12
2023-05-09T16:42:26.983Z,7
2023-05-09T16:44:28.197Z,12.1
2023-05-09T16:46:29.296Z,8
2023-05-09T16:50:31.727Z,7.2
2023-05-09T16:54:34.164Z,8.2
2023-05-09T16:58:39.894Z,14.7
2023-05-09T17:00:41.100Z,7.6
2023-05-09T17:03:44.580Z,15.5
2023-05-09T17:07:47.026Z,13.8
2023-05-09T17:09:51.544Z,9.9
2023-05-09T17:11:52.728Z,66.3
2023-05-09T17:13:54.002Z,135.2
2023-05-09T17:15:55.197Z,124.8
2023-05-09T17:17:56.467Z,136.8
2023-05-09T17:19:57.700Z,22.8
2023-05-09T17:21:58.907Z,16.1
2023-05-09T17:24:03.342Z,8
2023-05-09T17:26:04.573Z,9.8
2023-05-09T17:28:05.817Z,8.8
2023-05-09T17:32:08.231Z,7.8
2023-05-09T17:34:09.455Z,21.5
2023-05-09T17:36:10.671Z,14.4
2023-05-09T17:38:15.190Z,10.8
2023-05-09T17:44:18.878Z,15.5
2023-05-09T17:46:20.106Z,8.6
2023-05-09T17:52:27.024Z,10.3
2023-05-09T17:54:28.254Z,9.4
2023-05-09T17:57:31.705Z,9.7
2023-05-09T18:01:34.224Z,24
2023-05-09T18:09:42.365Z,10.7
2023-05-09T18:11:43.604Z,10.8
2023-05-09T18:13:44.792Z,12.7
2023-05-09T18:15:46.043Z,10.6
2023-05-09T18:17:47.296Z,12.6
2023-05-09T18:19:51.727Z,15.9
2023-05-09T18:21:52.841Z,8.5
2023-05-09T18:23:53.952Z,9.2
2023-05-09T18:27:56.151Z,21.3
2023-05-09T18:29:57.299Z,14.4
2023-05-09T18:34:02.669Z,10.4
2023-05-09T18:36:03.787Z,13.2
2023-05-09T18:40:06.030Z,15.5
2023-05-09T18:46:09.312Z,9.7
2023-05-09T18:52:15.819Z,12.8
2023-05-09T18:53:17.942Z,15.6
2023-05-09T18:57:20.143Z,18.2
2023-05-09T18:59:21.261Z,16.2
2023-05-09T19:01:25.738Z,34.4
2023-05-09T19:03:26.650Z,58.5
2023-05-09T19:05:27.745Z,24.6
2023-05-09T19:07:28.863Z,12.1
2023-05-09T19:09:29.988Z,17
2023-05-09T19:11:31.073Z,14.5
2023-05-09T19:13:32.336Z,22.1
2023-05-09T19:15:36.480Z,16.6
2023-05-09T19:19:38.690Z,87.9
2023-05-09T19:21:39.814Z,48.8
2023-05-09T19:23:40.895Z,55.6
2023-05-09T19:39:52.940Z,16.6
2023-05-09T19:41:54.054Z,15.7
2023-05-09T19:48:00.735Z,19.4
2023-05-09T19:56:35.086Z,12.7
2023-05-09T19:58:36.159Z,12.3
2023-05-09T20:00:37.305Z,16.6
2023-05-09T20:02:38.464Z,16.3
2023-05-09T20:04:39.485Z,14.3
2023-05-09T20:06:40.616Z,15.1
2023-05-09T20:10:45.991Z,15
2023-05-09T20:14:48.193Z,23.4
2023-05-09T20:16:49.306Z,18.9
2023-05-09T20:18:52.086Z,20.3
2023-05-09T20:20:51.526Z,17.9
2023-05-09T20:22:52.651Z,14.2
2023-05-09T20:24:56.919Z,17.8
2023-05-09T20:26:58.000Z,16.1
2023-05-09T20:28:59.115Z,18.8
2023-05-09T20:35:02.449Z,17.3
2023-05-09T20:37:05.091Z,17
2023-05-09T20:41:10.435Z,25.5
2023-05-09T20:43:11.595Z,22.3
2023-05-09T20:44:13.700Z,25
2023-05-09T20:46:14.813Z,24.4
2023-05-09T20:52:21.292Z,20.3
2023-05-09T20:54:22.430Z,24
2023-05-09T20:56:23.515Z,22.5
2023-05-09T20:58:24.645Z,22.1
2023-05-09T21:00:25.741Z,25.5
2023-05-09T21:02:26.946Z,21.4
2023-05-09T21:24:45.397Z,28.4
2023-05-09T21:30:48.770Z,22.7
2023-05-09T21:32:49.884Z,20.2
2023-05-09T21:36:55.925Z,17.7
2023-05-09T21:42:00.271Z,12.9
2023-05-09T21:46:02.570Z,11.5
2023-05-09T21:48:06.873Z,8
2023-05-09T21:50:07.927Z,12.7
2023-05-09T21:52:09.069Z,6.7
2023-05-09T21:58:12.405Z,7.7
2023-05-09T22:00:13.656Z,8.9
2023-05-09T22:02:18.079Z,13.7
2023-05-09T22:04:18.919Z,10
2023-05-09T22:06:20.050Z,13.1
2023-05-09T22:12:23.361Z,5.4
2023-05-09T22:14:24.473Z,5.7
2023-05-09T22:16:28.801Z,7
2023-05-09T22:18:29.878Z,5.4
2023-05-09T22:20:30.985Z,7
2023-05-09T22:22:32.198Z,5.6
2023-05-09T22:24:33.311Z,3.4
2023-05-09T22:26:34.454Z,4.9
2023-05-09T22:28:35.627Z,4.9
2023-05-09T22:30:39.853Z,10.6
2023-05-09T22:32:41.120Z,5.2
2023-05-09T22:34:42.290Z,5.1
2023-05-09T22:43:52.069Z,8.1
2023-05-09T22:47:54.339Z,11.3
2023-05-09T22:49:55.436Z,6.3
2023-05-09T23:02:05.418Z,9.9
2023-05-09T23:12:14.185Z,16.2
2023-05-09T23:18:17.542Z,13.2
2023-05-09T23:22:19.880Z,16.9
2023-05-09T23:24:21.105Z,14
2023-05-09T23:26:25.353Z,12.7
2023-05-09T23:28:26.483Z,20.4
2023-05-09T23:30:27.610Z,19.2
2023-05-09T23:34:55.096Z,15.7
2023-05-09T23:36:56.240Z,20.6
2023-05-09T23:39:00.535Z,21.6
2023-05-09T23:41:01.628Z,15.2
2023-05-09T23:43:02.779Z,15.6
2023-05-09T23:47:04.984Z,18.6
2023-05-09T23:49:06.102Z,18.8
2023-05-09T23:51:07.235Z,23.1
2023-05-09T23:53:11.616Z,18.8
2023-05-09T23:57:13.841Z,20.4
2023-05-09T23:59:15.093Z,19.8
